createdAt,value
2018-03-29T00:00:09.506Z,6.01
2018-03-29T00:01:09.512Z,6.05
2018-03-29T00:02:09.537Z,6.07
2018-03-29T00:03:09.513Z,6.07
2018-03-29T00:04:09.602Z,6.06
2018-03-29T00:05:09.529Z,6.01
2018-03-29T00:06:09.537Z,6.06
2018-03-29T00:07:09.540Z,6.02
2018-03-29T00:08:09.559Z,6.06
2018-03-29T00:09:09.547Z,6.10
2018-03-29T00:10:09.599Z,6.13
2018-03-29T00:11:09.593Z,6.20
2018-03-29T00:12:09.572Z,6.17
2018-03-29T00:13:09.581Z,6.17
2018-03-29T00:14:09.586Z,6.20
2018-03-29T00:15:09.639Z,6.20
2018-03-29T00:16:09.591Z,6.35
2018-03-29T00:17:09.596Z,6.25
2018-03-29T00:18:09.624Z,6.25
2018-03-29T00:19:09.632Z,6.32
2018-03-29T00:20:09.637Z,6.41
2018-03-29T00:21:09.679Z,6.34
2018-03-29T00:22:09.685Z,6.17
2018-03-29T00:23:09.681Z,6.25
2018-03-29T00:24:09.696Z,6.25
2018-03-29T00:25:09.638Z,6.22
2018-03-29T00:26:09.646Z,6.28
2018-03-29T00:27:09.654Z,6.22
2018-03-29T00:28:09.696Z,6.28
2018-03-29T00:29:09.680Z,6.29
2018-03-29T00:30:09.673Z,6.20
2018-03-29T00:31:09.680Z,6.28
2018-03-29T00:32:09.725Z,6.26
2018-03-29T00:33:09.738Z,6.22
2018-03-29T00:34:09.694Z,6.28
2018-03-29T00:35:09.744Z,6.25
2018-03-29T00:36:09.735Z,6.26
2018-03-29T00:37:09.715Z,6.31
2018-03-29T00:38:09.762Z,6.26
2018-03-29T00:39:09.793Z,6.29
2018-03-29T00:40:09.750Z,6.34
2018-03-29T00:41:09.734Z,6.34
2018-03-29T00:42:09.746Z,6.34
2018-03-29T00:43:09.756Z,6.34
2018-03-29T00:44:09.798Z,6.39
2018-03-29T00:45:09.759Z,6.35
2018-03-29T00:46:09.766Z,6.28
2018-03-29T00:47:09.773Z,6.26
2018-03-29T00:48:09.781Z,6.20
2018-03-29T00:49:09.781Z,6.29
2018-03-29T00:50:09.822Z,6.34
2018-03-29T00:51:09.809Z,6.38
2018-03-29T00:52:09.800Z,6.29
2018-03-29T00:53:09.802Z,6.36
2018-03-29T00:54:09.830Z,6.52
2018-03-29T00:55:09.815Z,6.52
2018-03-29T00:56:09.866Z,6.47
2018-03-29T00:57:09.824Z,6.52
2018-03-29T00:58:09.884Z,6.43
2018-03-29T00:59:09.877Z,6.44
2018-03-29T01:00:09.863Z,6.44
2018-03-29T01:01:09.859Z,6.39
2018-03-29T01:02:09.852Z,6.41
2018-03-29T01:03:09.939Z,6.43
2018-03-29T01:04:09.876Z,6.53
2018-03-29T01:05:09.922Z,6.52
2018-03-29T01:06:09.882Z,6.49
2018-03-29T01:07:09.893Z,6.52
2018-03-29T01:08:09.912Z,6.47
2018-03-29T01:09:09.929Z,6.50
2018-03-29T01:10:09.915Z,6.50
2018-03-29T01:11:09.962Z,6.47
2018-03-29T01:12:09.977Z,6.50
2018-03-29T01:13:09.936Z,6.56
2018-03-29T01:14:09.937Z,6.54
2018-03-29T01:15:09.963Z,6.57
2018-03-29T01:16:09.947Z,6.47
2018-03-29T01:17:09.985Z,6.52
2018-03-29T01:18:09.952Z,6.64
2018-03-29T01:19:09.989Z,6.62
2018-03-29T01:20:09.965Z,6.60
2018-03-29T01:21:10.031Z,6.70
2018-03-29T01:22:09.969Z,6.72
2018-03-29T01:23:10.015Z,6.78
2018-03-29T01:24:09.989Z,6.75
2018-03-29T01:25:09.990Z,6.77
2018-03-29T01:26:10.023Z,6.86
2018-03-29T01:27:10.078Z,6.87
2018-03-29T01:28:10.008Z,6.89
2018-03-29T01:29:10.012Z,6.90
2018-03-29T01:30:10.019Z,6.89
2018-03-29T01:31:10.057Z,6.93
2018-03-29T01:32:10.083Z,6.95
2018-03-29T01:33:10.039Z,6.92
2018-03-29T01:34:10.050Z,6.95
2018-03-29T01:35:10.089Z,7.00
2018-03-29T01:36:10.061Z,6.97
2018-03-29T01:37:10.206Z,6.97
2018-03-29T01:38:10.078Z,7.01
2018-03-29T01:39:10.133Z,6.96
2018-03-29T01:40:10.085Z,7.01
2018-03-29T01:41:10.098Z,7.03
2018-03-29T01:42:10.100Z,7.03
2018-03-29T01:43:10.096Z,7.07
2018-03-29T01:44:10.127Z,7.01
2018-03-29T01:45:10.172Z,6.97
2018-03-29T01:46:10.128Z,7.08
2018-03-29T01:47:10.126Z,7.03
2018-03-29T01:48:10.130Z,7.00
2018-03-29T01:49:10.139Z,7.05
2018-03-29T01:50:10.138Z,7.00
2018-03-29T01:51:10.212Z,7.14
2018-03-29T01:52:10.172Z,7.18
2018-03-29T01:53:10.163Z,7.04
2018-03-29T01:54:10.170Z,7.18
2018-03-29T01:55:10.186Z,7.11
2018-03-29T01:56:10.235Z,7.11
2018-03-29T01:57:10.183Z,7.13
2018-03-29T01:58:10.205Z,7.25
2018-03-29T01:59:10.198Z,7.13
2018-03-29T02:00:10.206Z,7.19
2018-03-29T02:01:10.218Z,7.23
2018-03-29T02:02:10.291Z,7.21
2018-03-29T02:03:10.234Z,7.25
2018-03-29T02:04:10.233Z,7.25
2018-03-29T02:05:10.246Z,7.19
2018-03-29T02:06:10.249Z,7.19
2018-03-29T02:07:10.257Z,7.33
2018-03-29T02:08:10.321Z,7.25
2018-03-29T02:09:10.289Z,7.28
2018-03-29T02:10:10.267Z,7.26
2018-03-29T02:11:10.292Z,7.25
2018-03-29T02:12:10.283Z,7.25
2018-03-29T02:13:10.305Z,7.32
2018-03-29T02:14:10.317Z,7.37
2018-03-29T02:15:10.311Z,7.23
2018-03-29T02:16:10.312Z,7.39
2018-03-29T02:17:10.321Z,7.25
2018-03-29T02:18:10.315Z,7.26
2018-03-29T02:19:10.356Z,7.32
2018-03-29T02:20:10.355Z,7.31
2018-03-29T02:21:10.335Z,7.36
2018-03-29T02:22:10.348Z,7.37
2018-03-29T02:23:10.363Z,7.36
2018-03-29T02:24:10.364Z,7.39
2018-03-29T02:25:10.389Z,7.37
2018-03-29T02:26:10.359Z,7.44
2018-03-29T02:27:10.487Z,7.41
2018-03-29T02:28:10.369Z,7.37
2018-03-29T02:29:10.376Z,7.41
2018-03-29T02:30:10.445Z,7.39
2018-03-29T02:31:10.391Z,7.48
2018-03-29T02:32:10.401Z,7.43
2018-03-29T02:33:10.423Z,7.46
2018-03-29T02:34:10.441Z,7.44
2018-03-29T02:35:10.479Z,7.48
2018-03-29T02:36:10.419Z,7.47
2018-03-29T02:37:10.484Z,7.53
2018-03-29T02:38:10.431Z,7.50
2018-03-29T02:39:10.486Z,7.50
2018-03-29T02:40:10.442Z,7.61
2018-03-29T02:41:10.509Z,7.58
2018-03-29T02:42:10.529Z,7.66
2018-03-29T02:43:10.467Z,7.55
2018-03-29T02:44:10.515Z,7.67
2018-03-29T02:45:10.474Z,7.62
2018-03-29T02:46:10.479Z,7.58
2018-03-29T02:47:10.503Z,7.58
2018-03-29T02:48:10.543Z,7.67
2018-03-29T02:49:10.500Z,7.72
2018-03-29T02:50:10.509Z,7.75
2018-03-29T02:51:10.515Z,7.72
2018-03-29T02:52:10.519Z,7.69
2018-03-29T02:53:10.560Z,7.74
2018-03-29T02:54:10.539Z,7.72
2018-03-29T02:55:10.599Z,7.69
2018-03-29T02:56:10.545Z,7.78
2018-03-29T02:57:10.558Z,7.80
2018-03-29T02:58:10.606Z,7.85
2018-03-29T02:59:10.616Z,7.85
2018-03-29T03:00:10.568Z,7.87
2018-03-29T03:01:10.634Z,7.90
2018-03-29T03:02:10.581Z,7.90
2018-03-29T03:03:10.595Z,7.85
2018-03-29T03:04:10.652Z,7.98
2018-03-29T03:05:10.602Z,7.95
2018-03-29T03:06:10.626Z,7.91
2018-03-29T03:07:10.618Z,7.93
2018-03-29T03:08:10.632Z,7.96
2018-03-29T03:09:10.685Z,8.01
2018-03-29T03:10:10.631Z,7.91
2018-03-29T03:11:10.681Z,7.95
2018-03-29T03:12:10.648Z,7.95
2018-03-29T03:13:10.669Z,7.95
2018-03-29T03:14:10.716Z,7.98
2018-03-29T03:15:10.668Z,7.95
2018-03-29T03:16:10.672Z,7.99
2018-03-29T03:17:10.906Z,8.06
2018-03-29T03:18:10.722Z,7.99
2018-03-29T03:19:10.734Z,7.99
2018-03-29T03:20:10.700Z,8.01
2018-03-29T03:21:10.774Z,8.02
2018-03-29T03:22:10.714Z,8.02
2018-03-29T03:23:10.769Z,8.05
2018-03-29T03:24:10.726Z,8.02
2018-03-29T03:25:10.734Z,8.05
2018-03-29T03:26:10.800Z,8.01
2018-03-29T03:27:10.744Z,8.03
2018-03-29T03:28:10.754Z,8.01
2018-03-29T03:29:10.760Z,7.99
2018-03-29T03:30:10.777Z,7.96
2018-03-29T03:31:10.787Z,8.01
2018-03-29T03:32:10.848Z,7.95
2018-03-29T03:33:10.787Z,7.93
2018-03-29T03:34:10.795Z,7.90
2018-03-29T03:35:10.803Z,7.93
2018-03-29T03:36:10.816Z,7.91
2018-03-29T03:37:10.840Z,7.99
2018-03-29T03:38:10.878Z,7.95
2018-03-29T03:39:10.825Z,7.99
2018-03-29T03:40:10.837Z,7.91
2018-03-29T03:41:10.890Z,7.90
2018-03-29T03:42:10.845Z,7.88
2018-03-29T03:43:10.852Z,7.95
2018-03-29T03:44:10.898Z,8.01
2018-03-29T03:45:11.084Z,7.93
2018-03-29T03:46:10.879Z,7.88
2018-03-29T03:47:10.909Z,7.95
2018-03-29T03:48:10.886Z,8.01
2018-03-29T03:49:10.897Z,7.96
2018-03-29T03:50:10.898Z,7.91
2018-03-29T03:51:10.904Z,7.96
2018-03-29T03:52:10.918Z,7.96
2018-03-29T03:53:10.949Z,7.98
2018-03-29T03:54:11.026Z,7.93
2018-03-29T03:55:10.926Z,7.90
2018-03-29T03:56:11.071Z,7.85
2018-03-29T03:57:10.934Z,7.87
2018-03-29T03:58:11.018Z,7.90
2018-03-29T03:59:10.993Z,8.01
2018-03-29T04:00:10.967Z,7.95
2018-03-29T04:01:10.969Z,8.03
2018-03-29T04:02:10.980Z,8.01
2018-03-29T04:03:10.992Z,7.88
2018-03-29T04:04:11.022Z,7.99
2018-03-29T04:05:10.993Z,8.03
2018-03-29T04:06:11.046Z,8.02
2018-03-29T04:07:11.093Z,7.93
2018-03-29T04:08:11.335Z,7.99
2018-03-29T04:09:11.017Z,7.85
2018-03-29T04:10:11.042Z,7.88
2018-03-29T04:11:11.044Z,7.98
2018-03-29T04:12:11.085Z,7.91
2018-03-29T04:13:11.103Z,7.88
2018-03-29T04:14:11.057Z,7.93
2018-03-29T04:15:11.060Z,7.77
2018-03-29T04:16:11.111Z,7.85
2018-03-29T04:17:11.136Z,7.84
2018-03-29T04:18:11.215Z,7.87
2018-03-29T04:19:11.088Z,7.99
2018-03-29T04:20:11.094Z,7.91
2018-03-29T04:21:11.115Z,7.78
2018-03-29T04:22:11.108Z,7.70
2018-03-29T04:23:11.142Z,7.80
2018-03-29T04:24:11.158Z,7.78
2018-03-29T04:25:11.131Z,7.75
2018-03-29T04:26:11.143Z,7.88
2018-03-29T04:27:11.219Z,7.78
2018-03-29T04:28:11.146Z,7.72
2018-03-29T04:29:11.190Z,7.66
2018-03-29T04:30:11.172Z,7.66
2018-03-29T04:31:11.168Z,7.64
2018-03-29T04:32:11.185Z,7.56
2018-03-29T04:33:11.183Z,7.55
2018-03-29T04:34:11.178Z,7.58
2018-03-29T04:35:11.282Z,7.47
2018-03-29T04:36:11.190Z,7.43
2018-03-29T04:37:11.210Z,7.44
2018-03-29T04:38:11.295Z,7.46
2018-03-29T04:39:11.221Z,7.51
2018-03-29T04:40:11.232Z,7.43
2018-03-29T04:41:11.260Z,7.41
2018-03-29T04:42:11.286Z,7.43
2018-03-29T04:43:11.239Z,7.41
2018-03-29T04:44:11.313Z,7.44
2018-03-29T04:45:11.256Z,7.43
2018-03-29T04:46:11.399Z,7.47
2018-03-29T04:47:11.264Z,7.41
2018-03-29T04:48:11.309Z,7.44
2018-03-29T04:49:11.373Z,7.53
2018-03-29T04:50:11.288Z,7.41
2018-03-29T04:51:11.292Z,7.46
2018-03-29T04:52:11.299Z,7.33
2018-03-29T04:53:11.363Z,7.32
2018-03-29T04:54:11.323Z,7.36
2018-03-29T04:55:11.313Z,7.31
2018-03-29T04:56:11.338Z,7.40
2018-03-29T04:57:11.333Z,7.33
2018-03-29T04:58:11.333Z,7.26
2018-03-29T04:59:11.377Z,7.28
2018-03-29T05:00:11.376Z,7.23
2018-03-29T05:01:11.365Z,7.19
2018-03-29T05:02:11.370Z,7.22
2018-03-29T05:03:11.386Z,7.28
2018-03-29T05:04:11.435Z,7.28
2018-03-29T05:05:11.422Z,7.36
2018-03-29T05:06:11.383Z,7.39
2018-03-29T05:07:11.436Z,7.29
2018-03-29T05:08:11.411Z,7.22
2018-03-29T05:09:11.409Z,7.33
2018-03-29T05:10:11.445Z,7.40
2018-03-29T05:11:11.436Z,7.36
2018-03-29T05:12:11.427Z,7.23
2018-03-29T05:13:11.508Z,7.22
2018-03-29T05:14:11.452Z,7.21
2018-03-29T05:15:11.483Z,7.40
2018-03-29T05:16:11.453Z,7.21
2018-03-29T05:17:11.464Z,7.37
2018-03-29T05:18:11.506Z,7.33
2018-03-29T05:19:11.476Z,7.37
2018-03-29T05:20:11.559Z,7.32
2018-03-29T05:21:11.487Z,7.26
2018-03-29T05:22:11.495Z,7.33
2018-03-29T05:23:11.505Z,7.39
2018-03-29T05:24:11.500Z,7.39
2018-03-29T05:25:11.536Z,7.44
2018-03-29T05:26:11.567Z,7.46
2018-03-29T05:27:11.540Z,7.50
2018-03-29T05:28:11.539Z,7.47
2018-03-29T05:29:11.598Z,7.39
2018-03-29T05:30:11.551Z,7.48
2018-03-29T05:31:11.552Z,7.43
2018-03-29T05:32:11.586Z,7.39
2018-03-29T05:33:11.561Z,7.48
2018-03-29T05:34:11.578Z,7.40
2018-03-29T05:35:11.612Z,7.43
2018-03-29T05:36:11.594Z,7.41
2018-03-29T05:37:11.621Z,7.43
2018-03-29T05:38:11.637Z,7.41
2018-03-29T05:39:11.603Z,7.39
2018-03-29T05:40:11.668Z,7.41
2018-03-29T05:41:11.616Z,7.37
2018-03-29T05:42:11.655Z,7.46
2018-03-29T05:43:11.651Z,7.40
2018-03-29T05:44:11.631Z,7.40
2018-03-29T05:45:11.722Z,7.36
2018-03-29T05:46:11.670Z,7.39
2018-03-29T05:47:11.652Z,7.32
2018-03-29T05:48:11.701Z,7.37
2018-03-29T05:49:11.665Z,7.44
2018-03-29T05:50:11.698Z,7.36
2018-03-29T05:51:11.687Z,7.29
2018-03-29T05:52:11.703Z,7.28
2018-03-29T05:53:11.698Z,7.26
2018-03-29T05:54:11.753Z,7.15
2018-03-29T05:55:11.702Z,7.23
2018-03-29T05:56:11.722Z,7.21
2018-03-29T05:57:11.722Z,7.10
2018-03-29T05:58:11.773Z,7.13
2018-03-29T05:59:11.746Z,7.18
2018-03-29T06:00:11.809Z,7.11
2018-03-29T06:01:11.762Z,7.19
2018-03-29T06:02:11.760Z,7.23
2018-03-29T06:03:11.831Z,7.31
2018-03-29T06:04:11.781Z,7.25
2018-03-29T06:05:11.765Z,7.32
2018-03-29T06:06:11.857Z,7.33
2018-03-29T06:07:11.813Z,7.39
2018-03-29T06:08:11.802Z,7.36
2018-03-29T06:09:11.805Z,7.32
2018-03-29T06:10:11.820Z,7.37
2018-03-29T06:11:11.853Z,7.40
2018-03-29T06:12:11.814Z,7.37
2018-03-29T06:13:11.819Z,7.25
2018-03-29T06:14:11.957Z,7.32
2018-03-29T06:15:11.884Z,7.41
2018-03-29T06:16:11.839Z,7.44
2018-03-29T06:17:11.873Z,7.43
2018-03-29T06:18:11.856Z,7.43
2018-03-29T06:19:11.903Z,7.33
2018-03-29T06:20:11.932Z,7.36
2018-03-29T06:21:11.883Z,7.46
2018-03-29T06:22:11.924Z,7.41
2018-03-29T06:23:11.948Z,7.46
2018-03-29T06:24:11.900Z,7.44
2018-03-29T06:25:11.900Z,7.40
2018-03-29T06:26:11.934Z,7.41
2018-03-29T06:27:11.939Z,7.37
2018-03-29T06:28:11.945Z,7.44
2018-03-29T06:29:11.974Z,7.44
2018-03-29T06:30:11.969Z,7.43
2018-03-29T06:31:11.930Z,7.40
2018-03-29T06:32:11.936Z,7.44
2018-03-29T06:33:12.081Z,7.44
2018-03-29T06:34:11.958Z,7.40
2018-03-29T06:35:11.979Z,7.41
2018-03-29T06:36:12.015Z,7.39
2018-03-29T06:37:11.976Z,7.46
2018-03-29T06:38:11.977Z,7.62
2018-03-29T06:39:11.985Z,7.51
2018-03-29T06:40:12.018Z,7.55
2018-03-29T06:41:12.030Z,7.51
2018-03-29T06:42:12.049Z,7.44
2018-03-29T06:43:12.007Z,7.55
2018-03-29T06:44:12.018Z,7.56
2018-03-29T06:45:12.055Z,7.44
2018-03-29T06:46:12.076Z,7.62
2018-03-29T06:47:12.044Z,7.62
2018-03-29T06:48:12.086Z,7.64
2018-03-29T06:49:12.056Z,7.59
2018-03-29T06:50:12.147Z,7.58
2018-03-29T06:51:12.085Z,7.50
2018-03-29T06:52:12.123Z,7.59
2018-03-29T06:53:12.081Z,7.56
2018-03-29T06:54:12.091Z,7.58
2018-03-29T06:55:12.118Z,7.61
2018-03-29T06:56:12.133Z,7.56
2018-03-29T06:57:12.144Z,7.55
2018-03-29T06:58:12.202Z,7.64
2018-03-29T06:59:12.120Z,7.61
2018-03-29T07:00:12.129Z,7.67
2018-03-29T07:01:12.133Z,7.74
2018-03-29T07:02:12.226Z,7.78
2018-03-29T07:03:12.149Z,7.77
2018-03-29T07:04:12.160Z,7.58
2018-03-29T07:05:12.200Z,7.67
2018-03-29T07:06:12.174Z,7.69
2018-03-29T07:07:12.167Z,7.66
2018-03-29T07:08:12.217Z,7.78
2018-03-29T07:09:12.235Z,7.78
2018-03-29T07:10:12.186Z,7.67
2018-03-29T07:11:12.210Z,7.61
2018-03-29T07:12:12.202Z,7.74
2018-03-29T07:13:12.252Z,7.69
2018-03-29T07:14:12.211Z,7.78
2018-03-29T07:15:12.229Z,7.72
2018-03-29T07:16:12.254Z,7.75
2018-03-29T07:17:12.235Z,7.74
2018-03-29T07:18:12.257Z,7.62
2018-03-29T07:19:12.312Z,7.84
2018-03-29T07:20:12.249Z,7.69
2018-03-29T07:21:47.795Z,7.61
2018-03-29T07:22:12.264Z,7.72
2018-03-29T07:23:12.286Z,7.75
2018-03-29T07:24:12.280Z,7.78
2018-03-29T07:25:12.323Z,7.77
2018-03-29T07:26:12.290Z,7.80
2018-03-29T07:27:12.310Z,7.87
2018-03-29T07:28:12.310Z,7.75
2018-03-29T07:29:12.321Z,7.81
2018-03-29T07:30:12.354Z,7.93
2018-03-29T07:31:12.373Z,7.77
2018-03-29T07:32:12.336Z,7.83
2018-03-29T07:33:12.339Z,7.74
2018-03-29T18:12:51.375Z,11.38
2018-03-29T18:13:51.331Z,11.26
2018-03-29T18:14:51.350Z,11.18
2018-03-29T18:15:51.382Z,10.94
2018-03-29T18:16:51.350Z,10.86
2018-03-29T18:17:51.373Z,10.82
2018-03-29T18:18:51.520Z,10.67
2018-03-29T18:19:51.399Z,10.68
2018-03-29T18:20:51.397Z,10.68
2018-03-29T18:21:51.428Z,10.68
2018-03-29T18:22:51.413Z,10.75
2018-03-29T18:23:51.402Z,10.59
2018-03-29T18:24:51.501Z,10.59
2018-03-29T18:25:51.459Z,10.64
2018-03-29T18:26:51.467Z,10.64
2018-03-29T18:27:51.470Z,10.61
2018-03-29T18:28:51.437Z,10.57
2018-03-29T18:29:51.471Z,10.61
2018-03-29T18:30:51.458Z,10.59
2018-03-29T18:31:51.484Z,10.58
2018-03-29T18:32:51.490Z,10.58
2018-03-29T18:33:52.418Z,10.57
2018-03-29T18:34:51.511Z,10.59
2018-03-29T18:35:51.494Z,10.62
2018-03-29T18:36:51.506Z,10.49
2018-03-29T18:37:51.527Z,10.45
2018-03-29T18:38:51.557Z,10.43
2018-03-29T18:39:51.535Z,10.48
2018-03-29T18:40:51.532Z,10.42
2018-03-29T18:41:51.537Z,10.51
2018-03-29T18:42:51.563Z,10.45
2018-03-29T18:43:51.627Z,10.48
2018-03-29T18:44:51.606Z,10.42
2018-03-29T18:45:51.616Z,10.46
2018-03-29T18:46:51.582Z,10.42
2018-03-29T18:47:51.624Z,10.53
2018-03-29T18:48:51.760Z,10.51
2018-03-29T18:49:51.624Z,10.53
2018-03-29T18:50:51.621Z,10.46
2018-03-29T18:51:51.632Z,10.43
2018-03-29T18:52:51.630Z,10.55
2018-03-29T18:53:51.637Z,10.41
2018-03-29T18:54:51.795Z,10.53
2018-03-29T18:55:51.646Z,10.59
2018-03-29T18:56:51.661Z,10.53
2018-03-29T18:57:51.662Z,10.57
2018-03-29T18:58:51.671Z,10.48
2018-03-29T18:59:51.689Z,10.51
2018-03-29T19:00:51.814Z,10.57
2018-03-29T19:01:51.710Z,10.59
2018-03-29T19:02:51.708Z,10.58
2018-03-29T19:03:51.721Z,10.49
2018-03-29T19:04:51.766Z,10.53
2018-03-29T19:05:51.734Z,10.45
2018-03-29T19:06:51.762Z,10.53
2018-03-29T19:07:51.765Z,10.46
2018-03-29T19:08:51.758Z,10.48
2018-03-29T19:09:51.854Z,10.43
2018-03-29T19:10:51.911Z,10.46
2018-03-29T19:11:51.779Z,10.45
2018-03-29T19:12:51.787Z,10.48
2018-03-29T19:13:51.838Z,10.45
2018-03-29T19:14:51.865Z,10.46
2018-03-29T19:15:51.975Z,10.41
2018-03-29T19:16:51.940Z,10.38
2018-03-29T19:17:51.819Z,10.41
2018-03-29T19:18:51.830Z,10.38
2018-03-29T19:19:51.834Z,10.43
2018-03-29T19:20:52.035Z,10.38
2018-03-29T19:21:52.002Z,10.31
2018-03-29T19:22:51.862Z,10.36
2018-03-29T19:23:51.873Z,10.34
2018-03-29T19:24:51.909Z,10.41
2018-03-29T19:25:51.900Z,10.25
2018-03-29T19:26:51.943Z,10.28
2018-03-29T19:27:51.906Z,10.24
2018-03-29T19:28:51.918Z,10.21
2018-03-29T19:29:51.917Z,10.21
2018-03-29T19:30:51.939Z,10.15
2018-03-29T19:31:51.938Z,10.18
2018-03-29T19:32:51.993Z,10.21
2018-03-29T19:33:51.959Z,10.30
2018-03-29T19:34:51.958Z,10.24
2018-03-29T19:35:51.970Z,10.10
2018-03-29T19:36:52.013Z,10.21
2018-03-29T19:37:51.992Z,10.21
2018-03-29T19:38:52.071Z,10.21
2018-03-29T19:39:51.997Z,10.13
2018-03-29T19:40:51.998Z,10.09
2018-03-29T19:41:52.009Z,10.12
2018-03-29T19:42:52.084Z,10.20
2018-03-29T19:43:52.021Z,10.17
2018-03-29T19:44:52.050Z,10.24
2018-03-29T19:45:52.149Z,10.20
2018-03-29T19:46:52.044Z,10.21
2018-03-29T19:47:52.070Z,10.27
2018-03-29T19:48:52.135Z,10.24
2018-03-29T19:49:52.083Z,10.25
2018-03-29T19:50:52.121Z,10.27
2018-03-29T19:51:52.094Z,10.23
2018-03-29T19:52:52.098Z,10.24
2018-03-29T19:53:52.121Z,10.21
2018-03-29T19:54:52.138Z,10.25
2018-03-29T19:55:52.140Z,10.25
2018-03-29T19:56:52.161Z,10.25
2018-03-29T19:57:52.142Z,10.25
2018-03-29T19:58:52.140Z,10.21
2018-03-29T19:59:52.154Z,10.31
2018-03-29T20:00:52.188Z,10.24
2018-03-29T20:01:52.195Z,10.23
2018-03-29T20:02:52.177Z,10.28
2018-03-29T20:03:52.179Z,10.28
2018-03-29T20:04:52.197Z,10.25
2018-03-29T20:05:52.193Z,10.28
2018-03-29T20:06:52.262Z,10.31
2018-03-29T20:07:52.214Z,10.25
2018-03-29T20:08:52.236Z,10.25
2018-03-29T20:09:52.238Z,10.28
2018-03-29T20:10:52.246Z,10.27
2018-03-29T20:11:52.251Z,10.25
2018-03-29T20:12:52.304Z,10.30
2018-03-29T20:13:52.264Z,10.33
2018-03-29T20:14:52.267Z,10.30
2018-03-29T20:15:52.280Z,10.24
2018-03-29T20:16:52.333Z,10.31
2018-03-29T20:17:52.295Z,10.31
2018-03-29T20:18:52.336Z,10.36
2018-03-29T20:19:52.308Z,10.38
2018-03-29T20:20:52.316Z,10.38
2018-03-29T20:21:52.328Z,10.34
2018-03-29T20:22:52.331Z,10.33
2018-03-29T20:23:52.388Z,10.34
2018-03-29T20:24:52.354Z,10.38
2018-03-29T20:25:52.345Z,10.31
2018-03-29T20:26:52.391Z,10.38
2018-03-29T20:27:52.363Z,10.45
2018-03-29T20:28:52.405Z,10.43
2018-03-29T20:29:52.416Z,10.43
2018-03-29T20:30:52.389Z,10.41
2018-03-29T20:31:52.399Z,10.33
2018-03-29T20:32:52.410Z,10.34
2018-03-29T20:33:52.408Z,10.34
2018-03-29T20:34:52.489Z,10.33
2018-03-29T20:35:52.423Z,10.28
2018-03-29T20:36:52.444Z,10.21
2018-03-29T20:37:52.441Z,10.21
2018-03-29T20:38:52.459Z,10.21
2018-03-29T20:39:52.451Z,10.06
2018-03-29T20:40:52.553Z,10.06
2018-03-29T20:41:52.487Z,10.09
2018-03-29T20:42:52.491Z,10.15
2018-03-29T20:43:52.494Z,9.94
2018-03-29T20:44:52.506Z,9.91
2018-03-29T20:45:52.551Z,9.95
2018-03-29T20:46:52.537Z,10.02
2018-03-29T20:47:52.520Z,10.06
2018-03-29T20:48:52.535Z,10.05
2018-03-29T20:49:52.553Z,9.92
2018-03-29T20:50:52.568Z,9.99
2018-03-29T20:51:52.591Z,9.95
2018-03-29T20:52:52.577Z,9.94
2018-03-29T20:53:52.561Z,9.92
2018-03-29T20:54:52.592Z,10.07
2018-03-29T20:55:52.599Z,9.94
2018-03-29T20:56:52.624Z,9.99
2018-03-29T20:57:52.642Z,9.85
2018-03-29T20:58:52.619Z,9.87
2018-03-29T20:59:52.622Z,9.91
2018-03-29T21:00:52.629Z,9.91
2018-03-29T21:01:52.679Z,9.90
2018-03-29T21:02:52.829Z,9.87
2018-03-29T21:03:52.662Z,9.95
2018-03-29T21:04:52.665Z,10.02
2018-03-29T21:05:52.671Z,9.90
2018-03-29T21:06:52.675Z,9.91
2018-03-29T21:07:52.674Z,9.97
2018-03-29T21:08:52.714Z,9.99
2018-03-29T21:09:52.691Z,9.95
2018-03-29T21:10:52.710Z,9.91
2018-03-29T21:11:52.705Z,9.94
2018-03-29T21:12:52.724Z,9.95
2018-03-29T21:13:52.771Z,10.00
2018-03-29T21:14:52.725Z,9.92
2018-03-29T21:15:52.755Z,10.06
2018-03-29T21:16:52.752Z,9.91
2018-03-29T21:17:52.771Z,9.97
2018-03-29T21:18:52.802Z,10.05
2018-03-29T21:19:52.808Z,9.95
2018-03-29T21:20:52.777Z,10.02
2018-03-29T21:21:52.777Z,10.02
2018-03-29T21:22:52.799Z,10.03
2018-03-29T21:23:52.851Z,10.03
2018-03-29T21:24:52.798Z,10.02
2018-03-29T21:25:52.810Z,9.94
2018-03-29T21:26:52.862Z,9.97
2018-03-29T21:27:52.831Z,9.95
2018-03-29T21:28:52.840Z,9.99
2018-03-29T21:29:52.859Z,10.02
2018-03-29T21:30:52.863Z,10.03
2018-03-29T21:31:52.854Z,10.09
2018-03-29T21:32:52.943Z,10.07
2018-03-29T21:33:52.888Z,10.06
2018-03-29T21:34:52.893Z,10.06
2018-03-29T21:35:52.913Z,10.05
2018-03-29T21:36:52.910Z,10.13
2018-03-29T21:37:52.950Z,10.03
2018-03-29T21:38:52.909Z,10.05
2018-03-29T21:39:53.098Z,10.10
2018-03-29T21:40:52.945Z,10.05
2018-03-29T21:41:52.949Z,10.09
2018-03-29T21:42:53.066Z,10.12
2018-03-29T21:43:53.019Z,10.05
2018-03-29T21:44:52.955Z,10.03
2018-03-29T21:45:52.970Z,10.09
2018-03-29T21:46:52.977Z,10.00
2018-03-29T21:47:52.986Z,10.09
2018-03-29T21:48:53.038Z,10.10
2018-03-29T21:49:52.999Z,10.13
2018-03-29T21:50:53.020Z,10.07
2018-03-29T21:51:53.015Z,10.12
2018-03-29T21:52:53.124Z,10.15
2018-03-29T21:53:53.036Z,10.18
2018-03-29T21:54:53.119Z,10.09
2018-03-29T21:55:53.048Z,10.09
2018-03-29T21:56:53.151Z,10.07
2018-03-29T21:57:53.060Z,10.10
2018-03-29T21:58:53.068Z,10.06
2018-03-29T21:59:53.115Z,10.12
2018-03-29T22:00:53.080Z,9.99
2018-03-29T22:01:53.148Z,9.88
2018-03-29T22:02:53.098Z,9.97
2018-03-29T22:03:53.103Z,9.91
2018-03-29T22:04:53.148Z,9.97
2018-03-29T22:05:53.376Z,9.91
2018-03-29T22:06:53.142Z,9.90
2018-03-29T22:07:53.132Z,9.92
2018-03-29T22:08:53.180Z,9.94
2018-03-29T22:09:53.144Z,9.94
2018-03-29T22:10:53.150Z,9.91
2018-03-29T22:11:53.166Z,9.94
2018-03-29T22:12:53.187Z,9.94
2018-03-29T22:13:53.211Z,9.91
2018-03-29T22:14:53.227Z,9.81
2018-03-29T22:15:53.189Z,9.77
2018-03-29T22:16:53.203Z,9.81
2018-03-29T22:17:53.205Z,9.80
2018-03-29T22:18:53.268Z,9.81
2018-03-29T22:19:53.219Z,9.64
2018-03-29T22:20:53.227Z,9.74
2018-03-29T22:21:53.231Z,9.69
2018-03-29T22:22:53.245Z,9.54
2018-03-29T22:23:53.250Z,9.51
2018-03-29T22:24:53.297Z,9.55
2018-03-29T22:25:53.290Z,9.54
2018-03-29T22:26:53.276Z,9.49
2018-03-29T22:27:53.319Z,9.42
2018-03-29T22:28:53.291Z,9.49
2018-03-29T22:29:53.311Z,9.45
2018-03-29T22:30:53.340Z,9.44
2018-03-29T22:31:53.332Z,9.40
2018-03-29T22:32:53.340Z,9.44
2018-03-29T22:33:53.404Z,9.55
2018-03-29T22:34:53.372Z,9.52
2018-03-29T22:35:53.378Z,9.42
2018-03-29T22:36:53.366Z,9.47
2018-03-29T22:37:53.362Z,9.39
2018-03-29T22:38:53.408Z,9.51
2018-03-29T22:39:53.385Z,9.42
2018-03-29T22:40:53.395Z,9.51
2018-03-29T22:41:53.408Z,9.47
2018-03-29T22:42:53.401Z,9.51
2018-03-29T22:43:53.420Z,9.47
2018-03-29T22:44:53.443Z,9.51
2018-03-29T22:45:53.429Z,9.49
2018-03-29T22:46:53.457Z,9.40
2018-03-29T22:47:53.422Z,9.52
2018-03-29T22:48:53.444Z,9.45
2018-03-29T22:49:53.469Z,9.49
2018-03-29T22:50:53.484Z,9.47
2018-03-29T22:51:53.472Z,9.36
2018-03-29T22:52:53.498Z,9.27
2018-03-29T22:53:53.523Z,9.21
2018-03-29T22:54:53.512Z,9.22
2018-03-29T22:55:53.492Z,9.13
2018-03-29T22:56:53.504Z,9.22
2018-03-29T22:57:53.535Z,9.29
2018-03-29T22:58:53.508Z,9.30
2018-03-29T22:59:53.558Z,9.29
2018-03-29T23:00:53.556Z,9.29
2018-03-29T23:01:53.533Z,9.29
2018-03-29T23:02:53.544Z,9.29
2018-03-29T23:03:53.553Z,9.27
2018-03-29T23:04:53.565Z,9.30
2018-03-29T23:05:53.599Z,9.29
2018-03-29T23:06:53.615Z,9.31
2018-03-29T23:07:53.572Z,9.34
2018-03-29T23:08:53.619Z,9.27
2018-03-29T23:09:53.633Z,9.27
2018-03-29T23:10:53.596Z,9.27
2018-03-29T23:11:53.613Z,9.33
2018-03-29T23:12:53.622Z,9.29
2018-03-29T23:13:53.624Z,9.33
2018-03-29T23:14:53.627Z,9.30
2018-03-29T23:15:53.735Z,9.29
2018-03-29T23:16:53.642Z,9.30
2018-03-29T23:17:53.654Z,9.27
2018-03-29T23:18:53.646Z,9.19
2018-03-29T23:19:53.661Z,9.26
2018-03-29T23:20:53.668Z,9.26
2018-03-29T23:21:53.710Z,9.21
2018-03-29T23:22:53.689Z,9.24
2018-03-29T23:23:53.691Z,9.27
2018-03-29T23:24:53.730Z,9.24
2018-03-29T23:25:53.732Z,9.29
2018-03-29T23:26:53.783Z,9.26
2018-03-29T23:27:53.717Z,9.30
2018-03-29T23:28:53.740Z,9.26
2018-03-29T23:29:53.787Z,9.26
2018-03-29T23:30:53.746Z,9.19
2018-03-29T23:31:53.741Z,9.18
2018-03-29T23:32:53.748Z,9.26
2018-03-29T23:33:53.778Z,9.18
2018-03-29T23:34:53.766Z,9.24
2018-03-29T23:35:53.816Z,9.18
2018-03-29T23:36:53.777Z,9.19
2018-03-29T23:37:53.794Z,9.21
2018-03-29T23:38:53.790Z,9.16
2018-03-29T23:39:53.811Z,9.21
2018-03-29T23:40:53.827Z,9.19
2018-03-29T23:41:53.853Z,9.22
2018-03-29T23:42:53.828Z,9.22
2018-03-29T23:43:53.825Z,9.27
2018-03-29T23:44:53.839Z,9.26
2018-03-29T23:45:53.869Z,9.30
2018-03-29T23:46:53.854Z,9.33
2018-03-29T23:47:53.905Z,9.31
2018-03-29T23:48:53.867Z,9.29
2018-03-29T23:49:53.871Z,9.26